createdAt,value
2023-03-29T00:02:38.465Z,77.48
2023-03-29T00:05:27.017Z,77.56
2023-03-29T00:08:02.028Z,77.53
2023-03-29T00:10:46.267Z,77.21
2023-03-29T00:13:31.413Z,77.00
2023-03-29T00:16:09.964Z,76.55
2023-03-29T00:18:46.795Z,76.46
2023-03-29T00:21:24.283Z,75.75
2023-03-29T00:24:01.225Z,75.24
2023-03-29T00:26:54.963Z,75.16
2023-03-29T00:29:35.837Z,75.18
2023-03-29T00:32:14.179Z,75.04
2023-03-29T00:34:54.337Z,74.98
2023-03-29T00:37:39.579Z,75.30
2023-03-29T00:40:21.714Z,75.72
2023-03-29T00:42:58.378Z,76.90
2023-03-29T00:45:55.624Z,77.10
2023-03-29T00:48:37.158Z,77.46
2023-03-29T00:51:25.358Z,77.63
2023-03-29T00:54:10.705Z,77.89
2023-03-29T00:57:03.648Z,77.41
2023-03-29T00:59:41.349Z,77.24
2023-03-29T01:02:43.650Z,77.13
2023-03-29T01:05:27.250Z,77.06
2023-03-29T01:08:17.161Z,76.85
2023-03-29T01:11:03.509Z,77.02
2023-03-29T01:13:45.131Z,77.07
2023-03-29T01:16:37.210Z,77.08
2023-03-29T01:19:22.396Z,76.70
2023-03-29T01:22:13.525Z,76.65
2023-03-29T01:25:15.179Z,76.46
2023-03-29T01:27:51.433Z,77.07
2023-03-29T01:30:31.900Z,77.73
2023-03-29T01:33:23.536Z,78.30
2023-03-29T01:36:08.619Z,78.15
2023-03-29T01:38:50.543Z,77.81
2023-03-29T01:41:27.211Z,77.81
2023-03-29T01:44:14.404Z,77.74
2023-03-29T01:47:06.614Z,77.89
2023-03-29T01:49:58.784Z,77.61
2023-03-29T01:52:53.780Z,78.03
2023-03-29T01:55:39.660Z,77.54
2023-03-29T01:58:23.382Z,76.65
2023-03-29T02:01:21.700Z,75.79
2023-03-29T02:04:13.491Z,75.00
2023-03-29T02:06:54.461Z,75.01
2023-03-29T02:09:30.953Z,74.75
2023-03-29T02:12:17.325Z,75.08
2023-03-29T02:14:52.077Z,75.62
2023-03-29T02:17:40.328Z,76.16
2023-03-29T02:20:29.689Z,76.45
2023-03-29T02:23:16.242Z,76.95
2023-03-29T02:26:03.737Z,77.39
2023-03-29T02:28:51.917Z,77.79
2023-03-29T02:31:36.573Z,78.59
2023-03-29T02:34:25.634Z,79.09
2023-03-29T02:37:07.047Z,79.23
2023-03-29T02:39:42.340Z,79.37
2023-03-29T02:42:25.218Z,79.85
2023-03-29T02:45:06.940Z,80.06
2023-03-29T02:47:47.234Z,80.20
2023-03-29T02:50:29.175Z,80.39
2023-03-29T02:53:19.886Z,80.57
2023-03-29T02:55:58.735Z,80.71
2023-03-29T02:58:39.181Z,80.38
2023-03-29T03:01:23.284Z,80.38
2023-03-29T03:04:05.853Z,80.21
2023-03-29T03:07:00.162Z,79.88
2023-03-29T03:09:55.083Z,79.43
2023-03-29T03:12:44.949Z,79.39
2023-03-29T03:15:27.244Z,79.05
2023-03-29T03:18:14.619Z,78.68
2023-03-29T03:24:03.991Z,78.04
2023-03-29T03:26:52.171Z,78.10
2023-03-29T03:29:29.479Z,78.00
2023-03-29T03:32:24.383Z,77.33
2023-03-29T03:35:32.913Z,77.52
2023-03-29T03:38:14.972Z,77.55
2023-03-29T03:41:01.463Z,77.12
2023-03-29T03:43:44.044Z,76.92
2023-03-29T03:46:33.539Z,76.65
2023-03-29T03:49:14.980Z,76.88
2023-03-29T03:51:55.364Z,76.87
2023-03-29T03:54:38.134Z,77.41
2023-03-29T03:57:35.838Z,77.54
2023-03-29T04:00:23.048Z,77.97
2023-03-29T04:03:20.985Z,78.29
2023-03-29T04:06:00.257Z,78.02
2023-03-29T04:08:45.597Z,78.34
2023-03-29T04:11:40.341Z,78.59
2023-03-29T04:14:14.248Z,78.50
2023-03-29T04:17:11.452Z,78.34
2023-03-29T04:20:10.526Z,78.69
2023-03-29T04:22:55.175Z,78.98
2023-03-29T04:25:41.972Z,79.30
2023-03-29T04:28:43.329Z,79.59
2023-03-29T04:31:45.412Z,79.82
2023-03-29T04:34:28.916Z,80.00
2023-03-29T04:37:10.323Z,79.58
2023-03-29T04:40:01.717Z,79.35
2023-03-29T04:42:45.218Z,79.55
2023-03-29T04:45:25.181Z,79.59
2023-03-29T04:48:39.326Z,79.73
2023-03-29T04:51:23.077Z,79.77
2023-03-29T04:54:15.802Z,79.80
2023-03-29T04:57:17.816Z,79.30
2023-03-29T05:00:40.390Z,79.32
2023-03-29T05:03:25.403Z,78.84
2023-03-29T05:06:21.976Z,78.54
2023-03-29T05:09:00.539Z,77.71
2023-03-29T05:12:00.361Z,77.11
2023-03-29T05:14:38.694Z,76.97
2023-03-29T05:17:17.839Z,76.50
2023-03-29T05:19:55.721Z,76.37
2023-03-29T05:22:38.430Z,76.56
2023-03-29T05:25:30.316Z,76.86
2023-03-29T05:28:09.958Z,76.90
2023-03-29T05:30:49.955Z,76.90
2023-03-29T05:33:30.963Z,76.84
2023-03-29T05:36:15.270Z,75.97
2023-03-29T05:38:59.141Z,76.38
2023-03-29T05:41:39.878Z,76.63
2023-03-29T05:44:44.921Z,76.85
2023-03-29T05:47:38.257Z,77.17
2023-03-29T05:50:34.522Z,76.42
2023-03-29T05:56:07.276Z,70.99
2023-03-29T05:58:56.993Z,69.99
2023-03-29T06:01:32.627Z,69.92
2023-03-29T06:04:21.630Z,69.72
2023-03-29T06:07:18.577Z,69.07
2023-03-29T06:10:15.412Z,68.69
2023-03-29T06:12:59.191Z,68.10
2023-03-29T06:15:39.691Z,67.49
2023-03-29T06:18:21.775Z,66.41
2023-03-29T06:21:02.362Z,65.57
2023-03-29T06:23:39.473Z,65.23
2023-03-29T06:26:27.618Z,63.53
2023-03-29T06:29:20.132Z,61.70
2023-03-29T06:31:58.431Z,61.97
2023-03-29T06:35:13.035Z,57.70
2023-03-29T06:37:53.963Z,56.42
2023-03-29T06:40:54.286Z,56.00
2023-03-29T06:43:42.391Z,54.88
2023-03-29T06:46:31.975Z,55.03
2023-03-29T06:49:20.612Z,51.48
2023-03-29T06:52:29.129Z,50.48
2023-03-29T06:55:11.168Z,52.10
2023-03-29T06:58:08.862Z,51.76
2023-03-29T07:01:28.745Z,51.65
2023-03-29T07:04:54.475Z,51.50
2023-03-29T07:07:58.605Z,51.85
2023-03-29T07:10:56.056Z,52.37
2023-03-29T07:13:36.236Z,51.91
2023-03-29T07:16:25.003Z,51.66
2023-03-29T07:19:29.122Z,52.10
2023-03-29T07:22:07.775Z,51.42
2023-03-29T07:24:57.355Z,52.39
2023-03-29T07:27:35.106Z,50.66
2023-03-29T07:30:19.106Z,50.90
2023-03-29T07:32:58.661Z,50.60
2023-03-29T07:36:00.425Z,49.95
2023-03-29T07:38:44.797Z,49.72
2023-03-29T07:41:31.298Z,49.49
2023-03-29T07:44:21.893Z,50.04
2023-03-29T07:47:02.065Z,49.38
2023-03-29T07:49:39.335Z,49.50
2023-03-29T07:52:20.041Z,48.99
2023-03-29T07:55:06.407Z,49.68
2023-03-29T07:58:25.605Z,49.18
2023-03-29T08:01:12.260Z,48.47
2023-03-29T08:04:31.671Z,48.60
2023-03-29T08:07:35.133Z,47.30
2023-03-29T08:10:37.065Z,47.69
2023-03-29T08:13:28.394Z,47.17
2023-03-29T08:16:22.360Z,46.51
2023-03-29T08:19:08.091Z,46.57
2023-03-29T08:22:21.427Z,47.05
2023-03-29T08:25:29.293Z,46.10
2023-03-29T08:28:09.876Z,45.90
2023-03-29T08:30:55.957Z,46.37
2023-03-29T08:33:52.896Z,44.91
2023-03-29T08:36:55.213Z,45.30
2023-03-29T08:39:51.358Z,46.53
2023-03-29T08:43:11.690Z,45.51
2023-03-29T08:46:34.277Z,44.74
2023-03-29T08:49:23.313Z,45.09
2023-03-29T08:52:30.733Z,43.86
2023-03-29T08:55:25.936Z,44.57
2023-03-29T08:58:31.679Z,43.98
2023-03-29T09:01:15.026Z,43.89
2023-03-29T09:04:13.488Z,43.11
2023-03-29T09:07:06.716Z,43.40
2023-03-29T09:09:48.687Z,42.79
2023-03-29T09:12:55.523Z,42.28
2023-03-29T09:15:54.320Z,42.64
2023-03-29T09:19:03.267Z,41.64
2023-03-29T09:22:13.861Z,40.19
2023-03-29T09:25:10.703Z,40.82
2023-03-29T09:27:54.933Z,41.08
2023-03-29T09:30:57.382Z,40.16
2023-03-29T09:34:00.186Z,40.43
2023-03-29T09:37:06.864Z,39.30
2023-03-29T09:40:00.875Z,39.38
2023-03-29T09:43:02.018Z,38.42
2023-03-29T09:45:48.477Z,39.00
2023-03-29T09:48:32.615Z,38.72
2023-03-29T09:51:18.224Z,39.20
2023-03-29T09:54:19.975Z,40.85
2023-03-29T09:57:25.492Z,38.28
2023-03-29T10:00:07.398Z,38.92
2023-03-29T10:02:57.759Z,38.50
2023-03-29T10:05:56.838Z,38.92
2023-03-29T10:08:36.321Z,38.10
2023-03-29T10:11:24.262Z,38.26
2023-03-29T10:14:05.019Z,37.96
2023-03-29T10:16:49.539Z,36.17
2023-03-29T10:19:33.564Z,36.34
2023-03-29T10:22:24.314Z,35.63
2023-03-29T10:25:08.646Z,35.05
2023-03-29T10:27:56.544Z,35.60
2023-03-29T10:30:38.969Z,35.64
2023-03-29T10:33:39.685Z,35.27
2023-03-29T10:36:25.526Z,34.28
2023-03-29T10:39:11.487Z,35.75
2023-03-29T10:41:52.746Z,35.89
2023-03-29T10:44:36.915Z,35.08
2023-03-29T10:47:31.037Z,34.71
2023-03-29T10:50:20.644Z,35.29
2023-03-29T10:52:55.206Z,35.87
2023-03-29T10:55:39.800Z,35.17
2023-03-29T10:58:30.490Z,35.07
2023-03-29T11:01:22.419Z,36.38
2023-03-29T11:04:13.144Z,34.55
2023-03-29T11:07:02.678Z,35.95
2023-03-29T11:10:19.391Z,34.63
2023-03-29T11:13:05.532Z,34.27
2023-03-29T11:16:21.479Z,35.01
2023-03-29T11:19:39.297Z,33.91
2023-03-29T11:22:36.930Z,33.70
2023-03-29T11:25:30.981Z,34.10
2023-03-29T11:28:19.280Z,34.52
2023-03-29T11:31:12.061Z,33.14
2023-03-29T11:33:58.823Z,34.94
2023-03-29T11:36:56.134Z,32.26
2023-03-29T11:40:00.949Z,33.02
2023-03-29T11:42:44.191Z,33.81
2023-03-29T11:45:37.115Z,32.00
2023-03-29T11:48:24.189Z,32.88
2023-03-29T11:51:10.562Z,33.60
2023-03-29T11:53:59.690Z,33.35
2023-03-29T11:56:37.370Z,31.67
2023-03-29T11:59:20.052Z,32.64
2023-03-29T12:02:06.426Z,31.71
2023-03-29T12:05:04.340Z,31.71
2023-03-29T12:07:48.017Z,32.36
2023-03-29T12:10:29.242Z,32.97
2023-03-29T12:13:16.325Z,32.77
2023-03-29T12:16:01.368Z,32.70
2023-03-29T12:18:47.592Z,32.75
2023-03-29T12:21:26.964Z,33.35
2023-03-29T12:24:03.579Z,34.24
2023-03-29T12:27:08.567Z,35.36
2023-03-29T12:29:55.901Z,33.57
2023-03-29T12:32:52.646Z,34.83
2023-03-29T12:36:34.177Z,33.38
2023-03-29T12:40:05.588Z,33.75
2023-03-29T12:43:08.986Z,34.98
2023-03-29T12:46:13.924Z,34.07
2023-03-29T12:48:48.460Z,35.03
2023-03-29T12:51:43.934Z,35.01
2023-03-29T12:54:33.247Z,33.64
2023-03-29T12:57:29.230Z,34.44
2023-03-29T13:00:17.629Z,33.83
2023-03-29T13:03:10.956Z,33.38
2023-03-29T13:05:47.353Z,34.13
2023-03-29T13:08:44.749Z,33.79
2023-03-29T13:11:35.593Z,34.23
2023-03-29T13:14:18.648Z,32.40
2023-03-29T13:17:18.507Z,32.25
2023-03-29T13:20:07.205Z,32.60
2023-03-29T13:22:57.745Z,31.76
2023-03-29T13:26:06.707Z,31.91
2023-03-29T13:29:01.632Z,31.49
2023-03-29T13:31:46.789Z,31.18
2023-03-29T13:34:39.979Z,30.39
2023-03-29T13:37:32.334Z,31.77
2023-03-29T13:40:32.073Z,31.40
2023-03-29T13:43:19.706Z,31.33
2023-03-29T13:46:29.475Z,31.31
2023-03-29T13:49:18.110Z,31.21
2023-03-29T13:52:17.212Z,30.64
2023-03-29T13:55:05.968Z,30.34
2023-03-29T13:57:55.094Z,30.38
2023-03-29T14:00:50.632Z,29.86
2023-03-29T14:03:31.958Z,31.15
2023-03-29T14:06:16.010Z,30.50
2023-03-29T14:08:55.220Z,30.92
2023-03-29T14:11:34.864Z,32.14
2023-03-29T14:14:14.151Z,31.45
2023-03-29T14:16:50.055Z,31.55
2023-03-29T14:19:37.184Z,31.45
2023-03-29T14:22:28.454Z,31.59
2023-03-29T14:25:16.843Z,32.10
2023-03-29T14:27:48.863Z,31.53
2023-03-29T14:30:35.419Z,31.21
2023-03-29T14:33:29.677Z,30.76
2023-03-29T14:36:10.987Z,31.83
2023-03-29T14:38:53.585Z,30.93
2023-03-29T14:41:34.364Z,32.31
2023-03-29T14:44:13.374Z,31.81
2023-03-29T14:47:00.749Z,31.18
2023-03-29T14:49:42.137Z,31.75
2023-03-29T14:52:25.751Z,31.38
2023-03-29T14:55:10.141Z,31.86
2023-03-29T14:57:48.303Z,31.30
2023-03-29T15:00:42.621Z,32.08
2023-03-29T15:03:36.330Z,32.83
2023-03-29T15:06:21.101Z,31.97
2023-03-29T15:09:05.025Z,32.05
2023-03-29T15:11:44.219Z,32.33
2023-03-29T15:14:23.747Z,31.92
2023-03-29T15:17:10.273Z,32.12
2023-03-29T15:19:50.077Z,32.35
2023-03-29T15:22:27.856Z,32.20
2023-03-29T15:25:05.369Z,32.44
2023-03-29T15:28:01.546Z,31.54
2023-03-29T15:30:40.395Z,32.04
2023-03-29T15:33:23.208Z,30.92
2023-03-29T15:36:20.601Z,32.48
2023-03-29T15:39:04.739Z,31.48
2023-03-29T15:41:41.897Z,32.81
2023-03-29T15:44:19.753Z,33.17
2023-03-29T15:46:56.545Z,32.68
2023-03-29T15:49:37.669Z,32.70
2023-03-29T15:52:17.749Z,33.11
2023-03-29T15:54:58.891Z,34.25
2023-03-29T15:57:50.544Z,33.60
2023-03-29T16:00:31.622Z,33.33
2023-03-29T16:03:11.002Z,33.21
2023-03-29T16:05:52.028Z,33.51
2023-03-29T16:08:34.842Z,33.27
2023-03-29T16:11:15.212Z,33.52
2023-03-29T16:14:00.028Z,33.20
2023-03-29T16:16:37.160Z,32.94
2023-03-29T16:19:11.268Z,33.58
2023-03-29T16:21:48.340Z,33.93
2023-03-29T16:24:29.716Z,33.08
2023-03-29T16:27:13.300Z,33.04
2023-03-29T16:29:55.600Z,34.00
2023-03-29T16:32:34.906Z,33.68
2023-03-29T16:35:14.162Z,33.41
2023-03-29T16:37:54.762Z,33.83
2023-03-29T16:40:33.133Z,34.31
2023-03-29T16:43:22.275Z,34.78
2023-03-29T16:46:01.762Z,34.29
2023-03-29T16:48:42.353Z,35.77
2023-03-29T16:51:20.768Z,35.68
2023-03-29T16:54:02.638Z,36.59
2023-03-29T16:56:41.328Z,36.48
2023-03-29T16:59:39.279Z,37.24
2023-03-29T17:02:32.979Z,37.23
2023-03-29T17:05:18.269Z,36.13
2023-03-29T17:07:59.085Z,36.24
2023-03-29T17:10:42.001Z,36.77
2023-03-29T17:13:17.375Z,37.26
2023-03-29T17:16:05.421Z,37.74
2023-03-29T17:18:39.698Z,38.11
2023-03-29T17:21:20.054Z,38.52
2023-03-29T17:24:03.521Z,38.14
2023-03-29T17:26:38.257Z,38.11
2023-03-29T17:29:26.886Z,38.48
2023-03-29T17:32:05.032Z,38.42
2023-03-29T17:34:49.666Z,38.55
2023-03-29T17:37:34.404Z,39.25
2023-03-29T17:40:26.026Z,39.76
2023-03-29T17:43:15.810Z,39.58
2023-03-29T17:45:55.281Z,39.21
2023-03-29T17:48:41.263Z,39.03
2023-03-29T17:51:15.173Z,39.26
2023-03-29T17:54:02.404Z,40.00
2023-03-29T17:56:44.816Z,40.89
2023-03-29T17:59:21.074Z,40.98
2023-03-29T18:02:10.050Z,40.71
2023-03-29T18:04:55.175Z,41.17
2023-03-29T18:07:33.930Z,41.17
2023-03-29T18:10:27.401Z,41.72
2023-03-29T18:13:04.584Z,41.90
2023-03-29T18:15:55.057Z,41.29
2023-03-29T18:18:42.021Z,41.94
2023-03-29T18:21:23.699Z,42.59
2023-03-29T18:24:05.742Z,42.45
2023-03-29T18:26:51.938Z,42.40
2023-03-29T18:29:33.022Z,42.57
2023-03-29T18:32:13.785Z,42.18
2023-03-29T18:34:54.531Z,42.32
2023-03-29T18:37:32.842Z,42.61
2023-03-29T18:40:17.313Z,42.98
2023-03-29T18:43:17.795Z,42.42
2023-03-29T18:45:55.799Z,41.56
2023-03-29T18:48:37.410Z,41.63
2023-03-29T18:51:25.785Z,42.03
2023-03-29T18:54:12.633Z,41.49
2023-03-29T18:56:56.051Z,41.29
2023-03-29T18:59:51.323Z,41.77
2023-03-29T19:02:33.768Z,41.71
2023-03-29T19:05:14.176Z,41.98
2023-03-29T19:08:04.853Z,42.24
2023-03-29T19:10:53.974Z,42.12
2023-03-29T19:13:28.027Z,42.10
2023-03-29T19:16:14.654Z,42.17
2023-03-29T19:18:50.971Z,42.43
2023-03-29T19:21:25.201Z,42.50
2023-03-29T19:24:07.967Z,42.61
2023-03-29T19:26:56.937Z,42.78
2023-03-29T19:29:37.352Z,43.69
2023-03-29T19:32:25.161Z,43.63
2023-03-29T19:35:08.151Z,43.76
2023-03-29T19:37:45.094Z,44.01
2023-03-29T19:40:22.756Z,43.95
2023-03-29T19:43:04.673Z,43.43
2023-03-29T19:45:43.357Z,43.52
2023-03-29T19:48:25.333Z,43.73
2023-03-29T19:51:06.054Z,43.64
2023-03-29T19:53:47.580Z,43.72
2023-03-29T19:56:38.756Z,43.38
2023-03-29T19:59:34.308Z,43.43
2023-03-29T20:02:14.824Z,44.12
2023-03-29T20:04:52.582Z,43.93
2023-03-29T20:07:29.879Z,44.41
2023-03-29T20:10:12.162Z,44.44
2023-03-29T20:12:57.731Z,44.52
2023-03-29T20:15:40.694Z,44.37
2023-03-29T20:18:24.834Z,43.92
2023-03-29T20:21:02.320Z,43.70
2023-03-29T20:23:40.557Z,43.99
2023-03-29T20:26:12.843Z,44.07
2023-03-29T20:28:46.010Z,44.06
2023-03-29T20:31:25.556Z,43.60
2023-03-29T20:34:09.655Z,43.52
2023-03-29T20:36:47.559Z,44.16
2023-03-29T20:39:28.412Z,44.20
2023-03-29T20:42:09.827Z,43.93
2023-03-29T20:44:52.553Z,42.65
2023-03-29T20:47:48.357Z,43.30
2023-03-29T20:50:40.286Z,42.66
2023-03-29T20:53:22.368Z,42.73
2023-03-29T20:55:59.574Z,42.34
2023-03-29T20:58:31.375Z,41.86
2023-03-29T21:01:08.159Z,41.73
2023-03-29T21:03:55.853Z,41.48
2023-03-29T21:06:48.390Z,41.53
2023-03-29T21:09:30.881Z,41.23
2023-03-29T21:12:12.227Z,41.39
2023-03-29T21:18:12.752Z,41.68
2023-03-29T21:20:54.038Z,43.11
2023-03-29T21:23:34.718Z,44.59
2023-03-29T21:26:13.600Z,45.67
2023-03-29T21:28:58.071Z,46.83
2023-03-29T21:31:41.661Z,46.91
2023-03-29T21:34:20.586Z,46.59
2023-03-29T21:37:03.530Z,46.72
2023-03-29T21:39:45.770Z,45.82
2023-03-29T21:42:30.462Z,44.42
2023-03-29T21:45:12.147Z,44.70
2023-03-29T21:48:02.775Z,44.66
2023-03-29T21:50:45.730Z,45.24
2023-03-29T21:53:25.909Z,45.15
2023-03-29T21:56:12.539Z,44.91
2023-03-29T21:58:51.514Z,44.49
2023-03-29T22:01:30.628Z,44.65
2023-03-29T22:04:25.516Z,44.70
2023-03-29T22:07:24.312Z,44.79
2023-03-29T22:10:11.317Z,44.20
2023-03-29T22:12:49.278Z,44.61
2023-03-29T22:15:30.664Z,44.53
2023-03-29T22:18:06.406Z,45.11
2023-03-29T22:20:47.923Z,45.10
2023-03-29T22:23:31.757Z,45.40
2023-03-29T22:26:19.870Z,45.08
2023-03-29T22:29:12.989Z,45.65
2023-03-29T22:31:53.796Z,45.95
2023-03-29T22:34:30.129Z,46.21
2023-03-29T22:37:18.157Z,46.38
2023-03-29T22:39:56.231Z,46.16
2023-03-29T22:42:47.100Z,46.32
2023-03-29T22:45:26.887Z,47.10
2023-03-29T22:48:03.320Z,47.05
2023-03-29T22:50:43.038Z,47.65
2023-03-29T22:53:28.239Z,47.73
2023-03-29T22:56:08.424Z,47.45
2023-03-29T22:58:49.286Z,48.40
2023-03-29T23:01:30.699Z,48.93
2023-03-29T23:04:02.985Z,49.20
2023-03-29T23:06:46.413Z,48.90
2023-03-29T23:09:31.726Z,48.76
2023-03-29T23:12:13.563Z,49.23
2023-03-29T23:15:08.506Z,49.53
2023-03-29T23:17:45.221Z,49.34
2023-03-29T23:20:22.626Z,49.39
2023-03-29T23:23:11.501Z,50.16
2023-03-29T23:25:50.345Z,49.54
2023-03-29T23:28:39.445Z,49.86
2023-03-29T23:31:24.824Z,49.75
2023-03-29T23:34:03.356Z,49.83
2023-03-29T23:36:48.917Z,49.78
2023-03-29T23:39:29.815Z,49.71
2023-03-29T23:42:05.676Z,50.06
2023-03-29T23:44:47.725Z,49.72
2023-03-29T23:47:33.418Z,50.49
2023-03-29T23:50:10.889Z,50.11
2023-03-29T23:52:51.728Z,50.33
2023-03-29T23:55:36.785Z,51.01
2023-03-29T23:58:17.331Z,50.98
